Time;durP1;ratioP1;P1;durP2;ratioP2;P2;SDS_P1;SDS_P2;PMS_P1;PMS_P2;Temp;Humidity;BMP_temperature;BMP_pressure;BME280_temperature;BME280_humidity;BME280_pressure;Samples;Min_cycle;Max_cycle;Signal;HPM_P1;HPM_P2
2024/04/02 00:00:37;;;;;;;1.17;1.08;;;10.10;99.90;;;;;;5121781;28;20386;-28
2024/04/02 00:03:07;;;;;;;1.13;1.02;;;10.10;99.90;;;;;;5110669;28;20032;-29
2024/04/02 00:05:33;;;;;;;1.00;0.90;;;10.00;99.90;;;;;;5120747;28;20035;-28
2024/04/02 00:08:09;;;;;;;0.98;0.90;;;10.00;99.90;;;;;;5119387;27;20098;-28
2024/04/02 00:10:36;;;;;;;1.10;0.95;;;10.00;99.90;;;;;;5107162;27;20364;-28
2024/04/02 00:13:02;;;;;;;1.00;0.90;;;10.00;99.90;;;;;;5111864;27;20036;-28
2024/04/02 00:15:28;;;;;;;0.80;0.80;;;9.90;99.90;;;;;;5109655;27;20118;-28
2024/04/02 00:17:58;;;;;;;1.13;0.98;;;9.90;99.90;;;;;;5108209;27;20148;-28
2024/04/02 00:20:24;;;;;;;1.25;0.90;;;9.90;99.90;;;;;;5117780;27;20513;-28
2024/04/02 00:22:50;;;;;;;0.82;0.82;;;9.80;99.90;;;;;;5121001;27;20029;-28
2024/04/02 00:25:15;;;;;;;1.15;0.90;;;9.80;99.90;;;;;;5115823;27;20023;-28
2024/04/02 00:27:41;;;;;;;0.82;0.80;;;9.80;99.90;;;;;;5122967;27;20047;-28
2024/04/02 00:30:07;;;;;;;0.93;0.90;;;9.80;99.90;;;;;;5112417;27;20803;-29
2024/04/02 00:32:32;;;;;;;0.95;0.88;;;9.80;99.90;;;;;;5122938;27;20500;-28
2024/04/02 00:34:58;;;;;;;0.88;0.88;;;9.70;99.90;;;;;;5105510;27;20557;-28
2024/04/02 00:37:24;;;;;;;0.65;0.65;;;9.70;99.90;;;;;;5118701;27;20080;-28
2024/04/02 00:39:50;;;;;;;1.10;0.65;;;9.70;99.90;;;;;;5116354;27;20027;-28
2024/04/02 00:42:16;;;;;;;0.70;0.70;;;9.70;99.90;;;;;;5103219;28;20035;-27
2024/04/02 00:44:42;;;;;;;1.05;0.82;;;9.70;99.90;;;;;;5116550;27;20066;-27
2024/04/02 00:47:08;;;;;;;0.75;0.70;;;9.60;99.90;;;;;;5104216;28;20471;-28
2024/04/02 00:49:35;;;;;;;1.00;0.70;;;9.60;99.90;;;;;;5114908;27;20023;-28
2024/04/02 00:52:02;;;;;;;1.00;0.75;;;9.60;99.90;;;;;;5104998;27;20066;-28
2024/04/02 00:54:28;;;;;;;1.02;0.70;;;9.50;99.90;;;;;;5112473;27;20023;-28
2024/04/02 00:56:54;;;;;;;1.13;0.70;;;9.50;99.90;;;;;;5105977;27;20031;-28
2024/04/02 00:59:21;;;;;;;0.98;0.73;;;9.50;99.90;;;;;;5108939;27;20027;-29
2024/04/02 01:01:50;;;;;;;1.17;0.70;;;9.40;99.90;;;;;;5109029;27;20096;-28
2024/04/02 01:04:25;;;;;;;0.77;0.60;;;9.40;99.90;;;;;;5107357;27;20023;-28
2024/04/02 01:06:51;;;;;;;1.52;0.95;;;9.40;99.90;;;;;;5110130;27;20450;-28
2024/04/02 01:09:18;;;;;;;0.70;0.70;;;9.40;99.90;;;;;;5105265;27;20015;-28
2024/04/02 01:11:44;;;;;;;0.70;0.70;;;9.40;99.90;;;;;;5113068;27;20039;-29
2024/04/02 01:14:10;;;;;;;0.50;0.50;;;9.40;99.90;;;;;;5103822;27;20024;-28
2024/04/02 01:16:42;;;;;;;0.80;0.80;;;9.40;99.90;;;;;;5114040;27;20050;-28
2024/04/02 01:19:11;;;;;;;1.90;0.60;;;9.40;99.90;;;;;;5101873;27;20063;-29
2024/04/02 01:21:38;;;;;;;0.60;0.60;;;9.40;99.90;;;;;;5112990;27;20079;-28
2024/04/02 01:24:04;;;;;;;0.60;0.60;;;9.40;99.90;;;;;;5099994;27;20109;-29
2024/04/02 01:26:30;;;;;;;1.05;0.80;;;9.30;99.90;;;;;;5115140;27;20028;-29
2024/04/02 01:28:58;;;;;;;1.48;0.70;;;9.30;99.90;;;;;;5123305;27;20081;-29
2024/04/02 01:31:27;;;;;;;1.33;0.75;;;9.40;99.90;;;;;;5114818;27;20155;-29
2024/04/02 01:33:53;;;;;;;0.60;0.60;;;9.30;99.90;;;;;;5102734;28;20055;-28
2024/04/02 01:36:19;;;;;;;0.80;0.63;;;9.30;99.90;;;;;;5110893;27;20110;-28
2024/04/02 01:38:44;;;;;;;0.73;0.68;;;9.30;99.90;;;;;;5104061;28;20051;-28
2024/04/02 01:41:10;;;;;;;2.65;0.70;;;9.30;99.90;;;;;;5113109;27;20023;-29
2024/04/02 01:43:35;;;;;;;0.85;0.80;;;9.30;99.90;;;;;;5105798;27;20023;-28
2024/04/02 01:46:04;;;;;;;0.88;0.70;;;9.20;99.90;;;;;;5109363;27;20055;-37
2024/04/02 01:48:29;;;;;;;0.60;0.55;;;9.20;99.90;;;;;;5107620;27;20011;-29
2024/04/02 01:50:55;;;;;;;0.70;0.68;;;9.20;99.90;;;;;;5107903;27;20038;-29
2024/04/02 01:53:21;;;;;;;0.40;0.40;;;9.10;99.90;;;;;;5109398;27;20475;-28
2024/04/02 01:55:46;;;;;;;0.93;0.55;;;9.10;99.90;;;;;;5104969;27;20835;-29
2024/04/02 01:58:12;;;;;;;0.82;0.68;;;9.10;99.90;;;;;;5111381;27;20012;-29
2024/04/02 02:00:37;;;;;;;0.63;0.50;;;9.10;99.90;;;;;;5104185;27;20023;-28
2024/04/02 02:03:04;;;;;;;0.60;0.60;;;9.10;99.90;;;;;;5114219;27;20053;-29
2024/04/02 02:05:30;;;;;;;0.98;0.90;;;9.10;99.90;;;;;;5101939;27;20074;-28
2024/04/02 02:07:55;;;;;;;0.70;0.70;;;9.10;99.90;;;;;;5113868;27;20024;-29
2024/04/02 02:10:21;;;;;;;0.73;0.73;;;9.00;99.90;;;;;;5101737;28;20042;-28
2024/04/02 02:12:46;;;;;;;0.70;0.70;;;9.00;99.90;;;;;;5113358;27;20080;-28
2024/04/02 02:15:15;;;;;;;0.68;0.68;;;9.00;99.90;;;;;;5101909;28;20080;-28
2024/04/02 02:17:42;;;;;;;1.05;0.70;;;9.00;99.90;;;;;;5114613;27;20031;-28
2024/04/02 02:20:08;;;;;;;0.65;0.65;;;9.00;99.90;;;;;;5100984;28;20199;-29
2024/04/02 02:22:34;;;;;;;1.02;0.70;;;9.00;99.90;;;;;;5106192;27;20148;-29
2024/04/02 02:25:00;;;;;;;1.13;0.70;;;9.00;99.90;;;;;;5119480;27;20019;-28
2024/04/02 02:27:26;;;;;;;0.60;0.60;;;9.00;99.90;;;;;;5114085;27;20382;-29
2024/04/02 02:29:51;;;;;;;1.10;0.80;;;9.00;99.90;;;;;;5117817;27;20031;-30
2024/04/02 02:32:17;;;;;;;1.55;1.08;;;9.00;99.90;;;;;;5115514;27;20047;-29
2024/04/02 02:34:42;;;;;;;0.80;0.70;;;9.00;99.90;;;;;;5113389;27;20191;-30
2024/04/02 02:37:14;;;;;;;1.05;0.70;;;9.00;99.90;;;;;;5112202;27;20024;-29
2024/04/02 02:39:40;;;;;;;0.82;0.70;;;8.90;99.90;;;;;;5111206;27;20532;-29
2024/04/02 02:42:05;;;;;;;0.73;0.70;;;8.90;99.90;;;;;;5101788;27;20076;-27
2024/04/02 02:44:31;;;;;;;2.05;0.68;;;8.90;99.90;;;;;;5113130;27;20107;-28
2024/04/02 02:46:57;;;;;;;0.70;0.70;;;8.90;99.90;;;;;;5102177;27;20344;-27
2024/04/02 02:49:22;;;;;;;0.90;0.70;;;8.80;99.90;;;;;;5111768;27;20030;-28
2024/04/02 02:51:48;;;;;;;1.73;0.82;;;8.80;99.90;;;;;;5101039;28;20037;-36
2024/04/02 02:54:13;;;;;;;1.15;0.82;;;8.80;99.90;;;;;;5113669;27;20019;-28
2024/04/02 02:56:40;;;;;;;1.00;0.70;;;8.80;99.90;;;;;;5100860;28;20024;-28
2024/04/02 02:59:05;;;;;;;1.25;0.80;;;8.80;99.90;;;;;;5113090;27;20022;-27
2024/04/02 03:01:31;;;;;;;1.27;0.90;;;8.80;99.90;;;;;;5101275;28;20480;-27
2024/04/02 03:03:56;;;;;;;3.15;1.42;;;8.80;99.90;;;;;;5110703;27;20035;-28
2024/04/02 03:06:23;;;;;;;2.25;1.13;;;8.70;99.90;;;;;;5103921;28;20027;-27
2024/04/02 03:08:50;;;;;;;2.00;0.80;;;8.70;99.90;;;;;;5105048;27;20022;-28
2024/04/02 03:11:16;;;;;;;1.30;0.63;;;8.70;99.90;;;;;;5116988;27;20042;-28
2024/04/02 03:13:41;;;;;;;0.70;0.63;;;8.70;99.90;;;;;;5117266;27;20408;-27
2024/04/02 03:16:07;;;;;;;0.65;0.65;;;8.60;99.90;;;;;;5113545;27;20145;-27
2024/04/02 03:18:33;;;;;;;1.50;0.70;;;8.60;99.90;;;;;;5119361;27;20031;-27
2024/04/02 03:21:01;;;;;;;0.82;0.80;;;8.60;99.90;;;;;;5111119;28;20125;-28
2024/04/02 03:23:27;;;;;;;2.67;1.45;;;8.60;99.90;;;;;;5118869;27;20072;-28
2024/04/02 03:26:02;;;;;;;1.33;0.80;;;8.60;99.90;;;;;;5109888;27;20080;-28
2024/04/02 03:28:31;;;;;;;0.90;0.68;;;8.50;99.90;;;;;;5120302;27;20027;-28
2024/04/02 03:30:58;;;;;;;0.68;0.68;;;8.50;99.90;;;;;;5109667;27;20118;-29
2024/04/02 03:33:24;;;;;;;0.70;0.70;;;8.50;99.90;;;;;;5120930;27;20622;-28
2024/04/02 03:35:50;;;;;;;2.10;0.60;;;8.50;99.90;;;;;;5109458;28;20126;-29
2024/04/02 03:38:16;;;;;;;0.85;0.73;;;8.40;99.90;;;;;;5100655;27;20550;-28
2024/04/02 03:40:42;;;;;;;0.82;0.60;;;8.50;99.90;;;;;;5114153;28;20027;-28
2024/04/02 03:43:07;;;;;;;1.92;1.35;;;8.40;99.90;;;;;;5103134;28;20034;-28
2024/04/02 03:45:42;;;;;;;0.73;0.73;;;8.40;99.90;;;;;;5116623;27;20035;-28
2024/04/02 03:48:09;;;;;;;0.93;0.82;;;8.40;99.90;;;;;;5104567;28;20034;-28
2024/04/02 03:50:36;;;;;;;1.00;0.90;;;8.40;99.90;;;;;;5109004;27;20466;-29
2024/04/02 03:53:02;;;;;;;1.23;0.82;;;8.40;99.90;;;;;;5123307;27;20040;-28
2024/04/02 03:55:31;;;;;;;1.02;0.60;;;8.30;99.90;;;;;;5116744;27;20406;-28
2024/04/02 03:58:01;;;;;;;1.25;0.90;;;8.30;99.90;;;;;;5120445;27;20023;-28
2024/04/02 04:00:27;;;;;;;0.93;0.93;;;8.30;99.90;;;;;;5117673;27;20672;-29
2024/04/02 04:02:55;;;;;;;1.77;0.90;;;8.30;99.90;;;;;;5119140;27;20059;-28
2024/04/02 04:05:21;;;;;;;0.93;0.90;;;8.30;99.90;;;;;;5118764;27;20085;-28
2024/04/02 04:07:47;;;;;;;0.90;0.85;;;8.30;99.90;;;;;;5116378;27;20031;-29
2024/04/02 04:10:17;;;;;;;1.20;1.10;;;8.30;99.90;;;;;;5122163;27;20898;-29
2024/04/02 04:12:54;;;;;;;1.02;0.93;;;8.30;99.90;;;;;;5113985;27;20030;-29
2024/04/02 04:15:20;;;;;;;2.97;0.90;;;8.30;99.90;;;;;;5122135;27;20773;-29
2024/04/02 04:17:45;;;;;;;1.55;0.80;;;8.30;99.90;;;;;;5112934;27;20027;-29
2024/04/02 04:20:11;;;;;;;2.80;0.88;;;8.20;99.90;;;;;;5121456;27;20047;-29
2024/04/02 04:22:36;;;;;;;1.08;0.98;;;8.30;99.90;;;;;;5113463;27;20476;-28
2024/04/02 04:25:04;;;;;;;1.25;0.90;;;8.30;99.90;;;;;;5124271;27;20068;-30
2024/04/02 04:27:37;;;;;;;2.05;0.80;;;8.30;99.90;;;;;;5119277;27;20043;-29
2024/04/02 04:30:05;;;;;;;1.83;0.90;;;8.30;99.90;;;;;;5103567;28;20023;-28
2024/04/02 04:32:31;;;;;;;1.60;0.85;;;8.30;99.90;;;;;;5117015;27;20027;-29
2024/04/02 04:34:59;;;;;;;2.55;0.90;;;8.30;99.90;;;;;;5103485;28;20766;-28
2024/04/02 04:37:25;;;;;;;1.17;0.70;;;8.30;99.90;;;;;;5107822;27;20561;-28
2024/04/02 04:39:51;;;;;;;1.55;0.90;;;8.30;99.90;;;;;;5124057;27;20076;-28
2024/04/02 04:42:16;;;;;;;1.25;0.88;;;8.30;99.90;;;;;;5113007;27;20515;-29
2024/04/02 04:44:45;;;;;;;1.05;0.70;;;8.30;99.90;;;;;;5122567;27;20085;-29
2024/04/02 04:47:11;;;;;;;2.20;0.82;;;8.30;99.90;;;;;;5114789;27;20019;-28
2024/04/02 04:49:39;;;;;;;2.30;0.93;;;8.30;99.90;;;;;;5119470;27;20084;-28
2024/04/02 04:52:05;;;;;;;1.38;1.00;;;8.30;99.90;;;;;;5117612;27;20031;-29
2024/04/02 04:54:32;;;;;;;1.70;0.90;;;8.30;99.90;;;;;;5116122;27;20034;-28
2024/04/02 04:56:58;;;;;;;3.60;0.90;;;8.40;99.90;;;;;;5120415;27;20023;-28
2024/04/02 04:59:23;;;;;;;1.17;1.00;;;8.40;99.90;;;;;;5114012;27;20042;-29
2024/04/02 05:01:49;;;;;;;1.58;0.90;;;8.50;99.90;;;;;;5120565;27;20022;-28
2024/04/02 05:04:14;;;;;;;1.00;0.88;;;8.50;99.90;;;;;;5111962;27;20027;-36
2024/04/02 05:06:42;;;;;;;1.15;0.85;;;8.60;99.90;;;;;;5122641;27;20019;-29
2024/04/02 05:09:11;;;;;;;1.58;0.80;;;8.70;99.90;;;;;;5111234;27;20428;-29
2024/04/02 05:11:40;;;;;;;2.13;1.20;;;8.70;99.90;;;;;;5124268;27;20035;-29
2024/04/02 05:14:06;;;;;;;1.55;0.93;;;8.70;99.90;;;;;;5117591;27;20019;-29
2024/04/02 05:16:34;;;;;;;1.45;0.82;;;8.70;99.90;;;;;;5102400;28;20067;-29
2024/04/02 05:19:00;;;;;;;1.70;1.00;;;8.70;99.90;;;;;;5115935;27;20056;-29
2024/04/02 05:21:26;;;;;;;3.25;1.30;;;8.70;99.90;;;;;;5103002;28;20122;-29
2024/04/02 05:23:51;;;;;;;1.80;1.05;;;8.70;99.90;;;;;;5114372;27;20034;-29
2024/04/02 05:26:17;;;;;;;2.42;1.35;;;8.80;99.90;;;;;;5102717;27;20040;-29
2024/04/02 05:28:43;;;;;;;2.03;1.02;;;8.80;99.90;;;;;;5112288;27;20110;-28
2024/04/02 05:31:11;;;;;;;1.70;0.95;;;8.80;99.90;;;;;;5104691;27;20134;-28
2024/04/02 05:33:38;;;;;;;1.98;1.20;;;8.80;99.90;;;;;;5110676;27;20007;-28
2024/04/02 05:36:06;;;;;;;1.50;1.00;;;8.90;99.90;;;;;;5107226;27;20035;-28
2024/04/02 05:38:35;;;;;;;1.33;1.02;;;8.90;99.90;;;;;;5106234;27;20756;-28
2024/04/02 05:41:00;;;;;;;1.30;0.90;;;9.00;99.90;;;;;;5115611;27;20230;-28
2024/04/02 05:43:27;;;;;;;1.95;0.85;;;9.00;99.90;;;;;;5119130;27;20955;-28
2024/04/02 05:45:53;;;;;;;1.30;0.73;;;9.10;99.90;;;;;;5113088;27;20038;-27
2024/04/02 05:48:18;;;;;;;1.30;0.85;;;9.10;99.90;;;;;;5121556;27;20118;-28
2024/04/02 05:50:52;;;;;;;1.13;1.00;;;9.20;99.90;;;;;;5111173;27;20043;-28
2024/04/02 05:53:18;;;;;;;1.35;0.88;;;9.20;99.90;;;;;;5120619;27;20051;-35
2024/04/02 05:55:43;;;;;;;2.10;1.08;;;9.20;99.90;;;;;;5111680;27;20118;-28
2024/04/02 05:58:09;;;;;;;3.10;1.20;;;9.30;99.90;;;;;;5120995;27;20356;-28
2024/04/02 06:00:34;;;;;;;1.60;1.00;;;9.30;99.90;;;;;;5109616;27;20416;-28
2024/04/02 06:03:00;;;;;;;0.88;0.80;;;9.30;99.90;;;;;;5119428;27;20774;-29
2024/04/02 06:05:26;;;;;;;1.63;1.00;;;9.30;99.90;;;;;;5107663;27;20059;-27
2024/04/02 06:07:55;;;;;;;1.20;1.10;;;9.40;99.90;;;;;;5121916;27;20031;-29
2024/04/02 06:10:20;;;;;;;1.88;1.08;;;9.40;99.90;;;;;;5109623;27;20028;-28
2024/04/02 06:12:46;;;;;;;1.42;1.13;;;9.40;99.90;;;;;;5120725;27;20031;-30
2024/04/02 06:15:18;;;;;;;1.80;1.15;;;9.40;99.90;;;;;;5112805;27;20023;-29
2024/04/02 06:17:43;;;;;;;1.27;1.10;;;9.40;99.90;;;;;;5119202;27;20044;-29
2024/04/02 06:20:09;;;;;;;1.80;1.00;;;9.30;99.90;;;;;;5112952;27;20058;-28
2024/04/02 06:22:35;;;;;;;3.53;1.20;;;9.30;99.90;;;;;;5116185;27;20083;-29
2024/04/02 06:25:02;;;;;;;1.17;0.98;;;9.30;99.90;;;;;;5116611;27;20791;-30
2024/04/02 06:27:28;;;;;;;2.42;1.10;;;9.30;99.90;;;;;;5112370;27;20016;-29
2024/04/02 06:29:53;;;;;;;2.15;1.23;;;9.30;99.90;;;;;;5118992;27;20027;-28
2024/04/02 06:32:20;;;;;;;2.50;1.25;;;9.30;99.90;;;;;;5110604;27;20450;-29
2024/04/02 06:34:45;;;;;;;1.55;1.13;;;9.30;99.90;;;;;;5120368;27;20096;-30
2024/04/02 06:37:11;;;;;;;1.52;1.13;;;9.40;99.90;;;;;;5111213;27;20035;-30
2024/04/02 06:39:36;;;;;;;4.03;1.42;;;9.50;99.90;;;;;;5119508;27;20027;-30
2024/04/02 06:42:02;;;;;;;2.55;1.10;;;9.60;99.90;;;;;;5108172;27;20027;-29
2024/04/02 06:44:28;;;;;;;1.88;1.20;;;9.70;99.90;;;;;;5121485;27;20481;-29
2024/04/02 06:46:54;;;;;;;3.55;1.50;;;9.80;99.90;;;;;;5107542;27;20451;-29
2024/04/02 06:49:19;;;;;;;3.85;1.55;;;9.80;99.90;;;;;;5121347;27;20045;-29
2024/04/02 06:51:45;;;;;;;3.63;1.20;;;9.90;99.90;;;;;;5108887;27;20049;-29
2024/04/02 06:54:12;;;;;;;2.90;1.40;;;9.90;99.90;;;;;;5119244;27;20030;-29
2024/04/02 06:56:37;;;;;;;3.05;1.70;;;9.90;99.90;;;;;;5111987;27;20485;-29
2024/04/02 06:59:03;;;;;;;2.63;1.30;;;10.00;99.90;;;;;;5117353;27;20024;-29
2024/04/02 07:01:29;;;;;;;3.17;1.23;;;10.00;99.90;;;;;;5113022;27;20031;-29
2024/04/02 07:03:54;;;;;;;3.85;1.58;;;10.00;99.90;;;;;;5115055;27;20042;-29
2024/04/02 07:06:20;;;;;;;3.53;1.73;;;10.00;99.90;;;;;;5117045;27;20031;-29
2024/04/02 07:08:46;;;;;;;3.63;1.70;;;10.10;99.90;;;;;;5111836;27;20020;-29
2024/04/02 07:11:12;;;;;;;4.13;1.90;;;10.10;99.90;;;;;;5118723;27;20035;-30
2024/04/02 07:13:39;;;;;;;2.63;1.83;;;10.10;99.90;;;;;;5110275;27;20027;-29
2024/04/02 07:16:05;;;;;;;5.25;2.08;;;10.20;99.90;;;;;;5119155;27;20023;-29
2024/04/02 07:18:35;;;;;;;1.92;1.50;;;10.20;99.90;;;;;;5112375;27;20023;-28
2024/04/02 07:21:02;;;;;;;3.20;1.83;;;10.20;99.90;;;;;;5102217;28;20028;-28
2024/04/02 07:23:28;;;;;;;4.65;2.42;;;10.30;99.90;;;;;;5105426;27;20537;-27
2024/04/02 07:25:54;;;;;;;3.30;2.00;;;10.30;99.90;;;;;;5121397;27;20042;-27
2024/04/02 07:28:21;;;;;;;3.72;2.13;;;10.30;99.90;;;;;;5108510;27;20502;-31
2024/04/02 07:30:46;;;;;;;3.83;2.33;;;10.30;99.90;;;;;;5121528;27;20565;-28
2024/04/02 07:33:13;;;;;;;7.70;2.70;;;10.30;99.90;;;;;;5109110;28;20035;-30
2024/04/02 07:35:39;;;;;;;5.18;2.60;;;10.30;99.90;;;;;;5121858;28;20023;-28
2024/04/02 07:38:05;;;;;;;4.60;2.03;;;10.30;99.90;;;;;;5115036;27;20015;-28
2024/04/02 07:40:30;;;;;;;4.30;2.40;;;10.40;99.90;;;;;;5103085;27;20023;-28
2024/04/02 07:42:58;;;;;;;3.95;2.33;;;10.40;99.90;;;;;;5106270;28;20060;-27
2024/04/02 07:45:24;;;;;;;4.70;2.15;;;10.40;99.90;;;;;;5116280;28;20035;-29
2024/04/02 07:47:50;;;;;;;4.55;2.22;;;10.40;99.90;;;;;;5116235;27;20726;-28
2024/04/02 07:50:15;;;;;;;5.30;2.72;;;10.50;99.90;;;;;;5107877;27;20164;-28
2024/04/02 07:52:41;;;;;;;7.20;2.50;;;10.50;99.90;;;;;;5102420;28;20383;-29
2024/04/02 07:55:07;;;;;;;5.32;2.35;;;10.50;99.90;;;;;;5121401;28;20629;-28
2024/04/02 07:57:32;;;;;;;4.03;2.30;;;10.60;99.90;;;;;;5118967;28;20506;-28
2024/04/02 07:59:58;;;;;;;5.10;2.30;;;10.70;99.90;;;;;;5110216;28;20076;-28
2024/04/02 08:02:23;;;;;;;6.78;2.45;;;10.70;99.90;;;;;;5121144;28;20143;-27
2024/04/02 08:04:51;;;;;;;6.13;2.50;;;10.70;99.90;;;;;;5107577;28;20062;-28
2024/04/02 08:07:17;;;;;;;5.43;2.15;;;10.70;99.90;;;;;;5120634;27;20031;-28
2024/04/02 08:09:44;;;;;;;6.65;2.30;;;10.70;99.90;;;;;;5107713;27;20035;-28
2024/04/02 08:12:10;;;;;;;3.88;2.00;;;10.80;99.90;;;;;;5120445;27;20031;-29
2024/04/02 08:14:36;;;;;;;4.22;1.80;;;10.70;99.90;;;;;;5108149;28;20085;-28
2024/04/02 08:17:02;;;;;;;4.22;2.10;;;10.70;99.90;;;;;;5120409;28;20027;-29
2024/04/02 08:19:28;;;;;;;3.33;1.70;;;10.70;99.90;;;;;;5109188;27;20578;-28
2024/04/02 08:21:53;;;;;;;3.08;1.55;;;10.70;99.90;;;;;;5117632;28;20879;-28
2024/04/02 08:24:19;;;;;;;5.65;1.73;;;10.80;99.90;;;;;;5112662;27;20027;-28
2024/04/02 08:26:45;;;;;;;4.25;1.80;;;10.80;99.90;;;;;;5114324;28;20023;-28
2024/04/02 08:29:10;;;;;;;2.95;1.73;;;10.80;99.90;;;;;;5115207;27;20026;-29
2024/04/02 08:31:36;;;;;;;5.53;1.65;;;10.80;99.90;;;;;;5115946;27;20035;-28
2024/04/02 08:34:03;;;;;;;3.83;1.50;;;10.80;99.90;;;;;;5121323;27;20012;-28
2024/04/02 08:36:29;;;;;;;3.85;1.75;;;10.80;99.90;;;;;;5112726;27;20816;-28
2024/04/02 08:38:55;;;;;;;4.68;1.60;;;10.80;99.90;;;;;;5104993;27;20019;-29
2024/04/02 08:41:25;;;;;;;4.38;2.13;;;10.80;99.90;;;;;;5114505;27;20027;-28
2024/04/02 08:43:56;;;;;;;7.13;1.90;;;10.80;99.90;;;;;;5102609;27;20093;-28
2024/04/02 08:46:23;;;;;;;5.90;2.03;;;10.80;99.90;;;;;;5120101;27;20769;-28
2024/04/02 08:48:57;;;;;;;7.35;2.22;;;10.90;99.90;;;;;;5124223;27;20073;-28
2024/04/02 08:51:24;;;;;;;5.63;1.83;;;10.90;99.90;;;;;;5118119;27;20494;-28
2024/04/02 08:53:49;;;;;;;3.50;1.55;;;11.00;99.90;;;;;;5102098;28;20024;-28
2024/04/02 08:56:16;;;;;;;2.35;1.30;;;11.00;99.90;;;;;;5116187;27;20037;-29
2024/04/02 08:58:46;;;;;;;4.28;1.63;;;11.10;99.90;;;;;;5103383;28;20027;-28
2024/04/02 09:01:13;;;;;;;5.43;1.80;;;11.10;99.90;;;;;;5114811;27;20034;-28
2024/04/02 09:03:39;;;;;;;6.03;1.83;;;11.20;99.90;;;;;;5102307;28;20031;-28
2024/04/02 09:06:05;;;;;;;2.92;1.15;;;11.30;99.90;;;;;;5112319;27;20034;-28
2024/04/02 09:08:43;;;;;;;3.30;1.30;;;11.30;99.90;;;;;;5104500;27;20523;-29
2024/04/02 09:11:11;;;;;;;3.28;1.45;;;11.40;99.90;;;;;;5112361;27;20031;-31
2024/04/02 09:13:38;;;;;;;1.35;0.90;;;11.40;99.90;;;;;;5105766;27;20047;-28
2024/04/02 09:16:04;;;;;;;2.65;1.45;;;11.40;99.90;;;;;;5108818;27;20035;-28
2024/04/02 09:18:32;;;;;;;5.78;1.90;;;11.50;99.90;;;;;;5107409;27;20443;-28
2024/04/02 09:21:00;;;;;;;5.15;1.27;;;11.50;99.90;;;;;;5107829;27;20062;-29
2024/04/02 09:23:25;;;;;;;3.90;1.38;;;11.50;99.90;;;;;;5109213;27;20106;-29
2024/04/02 09:25:51;;;;;;;4.63;2.10;;;11.50;99.90;;;;;;5105213;27;20110;-29
2024/04/02 09:28:17;;;;;;;4.88;1.60;;;11.60;99.90;;;;;;5112165;27;20023;-28
2024/04/02 09:30:42;;;;;;;4.28;1.80;;;11.60;99.90;;;;;;5104118;27;20061;-30
2024/04/02 09:33:10;;;;;;;7.50;1.88;;;11.60;99.90;;;;;;5113530;27;20038;-28
2024/04/02 09:36:04;;;;;;;3.67;1.48;;;11.60;99.90;;;;;;5103685;27;20054;-28
2024/04/02 09:38:32;;;;;;;3.58;1.40;;;11.70;99.90;;;;;;5119925;27;20035;-28
2024/04/02 09:40:59;;;;;;;2.88;1.23;;;11.80;99.90;;;;;;5120694;27;20019;-29
2024/04/02 09:43:26;;;;;;;4.32;1.65;;;11.80;99.90;;;;;;5113286;27;20031;-29
2024/04/02 09:45:52;;;;;;;4.80;1.50;;;11.80;99.90;;;;;;5103179;27;20038;-28
2024/04/02 09:48:22;;;;;;;4.78;1.33;;;11.80;99.90;;;;;;5114107;27;20028;-28
2024/04/02 09:50:52;;;;;;;6.18;2.00;;;11.90;99.90;;;;;;5101616;28;20124;-29
2024/04/02 09:53:19;;;;;;;5.15;1.50;;;12.00;99.90;;;;;;5114560;27;20064;-29
2024/04/02 09:55:46;;;;;;;3.35;1.52;;;12.10;99.90;;;;;;5102547;28;20031;-29
2024/04/02 09:58:12;;;;;;;4.60;1.80;;;12.20;99.90;;;;;;5114252;27;20200;-28
2024/04/02 10:00:43;;;;;;;4.35;1.67;;;12.30;99.90;;;;;;5102484;28;20051;-28
2024/04/02 10:03:10;;;;;;;10.60;2.47;;;12.40;99.90;;;;;;5113808;27;20026;-29
2024/04/02 10:05:36;;;;;;;3.30;1.40;;;12.60;99.90;;;;;;5101645;27;20067;-30
2024/04/02 10:08:03;;;;;;;4.15;1.70;;;12.70;99.90;;;;;;5110401;27;20102;-28
2024/04/02 10:10:29;;;;;;;5.40;1.75;;;12.80;99.90;;;;;;5103439;27;20027;-28
2024/04/02 10:12:56;;;;;;;3.72;1.20;;;12.90;99.90;;;;;;5107822;27;20038;-29
2024/04/02 10:15:22;;;;;;;3.60;1.40;;;13.00;99.90;;;;;;5107346;27;20020;-29
2024/04/02 10:18:00;;;;;;;4.13;1.55;;;13.10;99.90;;;;;;5104899;27;20054;-29
2024/04/02 10:20:35;;;;;;;3.15;1.20;;;13.20;99.90;;;;;;5115517;27;20047;-28
2024/04/02 10:23:02;;;;;;;6.22;1.38;;;13.20;99.90;;;;;;5116273;27;20556;-30
2024/04/02 10:25:37;;;;;;;4.47;1.30;;;13.20;99.90;;;;;;5113819;27;20019;-29
2024/04/02 10:28:03;;;;;;;3.78;1.40;;;13.20;99.90;;;;;;5118736;27;20673;-29
2024/04/02 10:30:34;;;;;;;5.20;1.63;;;13.10;99.90;;;;;;5113020;27;20027;-31
2024/04/02 10:33:00;;;;;;;4.90;1.30;;;13.00;99.90;;;;;;5118968;27;20042;-28
2024/04/02 10:35:28;;;;;;;5.65;1.50;;;12.90;99.90;;;;;;5110515;27;20096;-28
2024/04/02 10:37:57;;;;;;;2.47;1.10;;;12.80;99.90;;;;;;5111411;27;20027;-28
2024/04/02 10:40:25;;;;;;;3.80;1.40;;;12.70;99.90;;;;;;5112195;27;20032;-29
2024/04/02 10:42:52;;;;;;;2.72;1.30;;;12.60;99.90;;;;;;5102680;27;20368;-29
2024/04/02 10:45:24;;;;;;;3.88;1.58;;;12.60;99.90;;;;;;5118264;27;20079;-29
2024/04/02 10:47:51;;;;;;;2.90;1.17;;;12.60;99.90;;;;;;5120543;27;20195;-29
2024/04/02 10:50:18;;;;;;;2.85;1.33;;;12.60;99.90;;;;;;5109135;27;20119;-32
2024/04/02 10:52:44;;;;;;;3.55;1.40;;;12.60;99.90;;;;;;5120897;27;20170;-28
2024/04/02 10:55:10;;;;;;;3.58;1.30;;;12.50;99.90;;;;;;5108189;27;20478;-28
2024/04/02 10:57:37;;;;;;;4.07;1.73;;;12.40;99.90;;;;;;5122717;27;20031;-29
2024/04/02 11:00:05;;;;;;;3.15;1.30;;;12.40;99.90;;;;;;5109721;27;20030;-28
2024/04/02 11:02:32;;;;;;;4.97;1.20;;;12.30;99.90;;;;;;5121332;27;20027;-28
2024/04/02 11:04:58;;;;;;;2.75;1.17;;;12.30;99.90;;;;;;5111364;27;20055;-29
2024/04/02 11:07:28;;;;;;;2.75;1.08;;;12.30;99.90;;;;;;5117633;27;20034;-30
2024/04/02 11:09:54;;;;;;;3.42;1.13;;;12.30;99.90;;;;;;5117956;27;20054;-31
2024/04/02 11:12:21;;;;;;;2.03;1.08;;;12.30;99.90;;;;;;5105360;27;20035;-28
2024/04/02 11:14:53;;;;;;;2.63;1.30;;;12.30;99.90;;;;;;5104293;27;20401;-31
2024/04/02 11:17:19;;;;;;;2.10;0.93;;;12.30;99.90;;;;;;5106821;27;20035;-29
2024/04/02 11:19:45;;;;;;;4.45;1.27;;;12.30;99.90;;;;;;5103721;28;20044;-29
2024/04/02 11:25:08;;;;;;;2.90;1.08;;;12.20;99.90;;;;;;5104372;28;20039;-29
2024/04/02 11:27:34;;;;;;;2.42;1.10;;;12.20;99.90;;;;;;5121555;27;20061;-28
2024/04/02 11:30:00;;;;;;;2.47;0.82;;;12.20;99.90;;;;;;5118668;27;20114;-29
2024/04/02 11:32:26;;;;;;;0.80;0.70;;;12.20;99.90;;;;;;5111674;28;20066;-30
2024/04/02 11:35:02;;;;;;;1.83;0.80;;;12.20;99.90;;;;;;5118182;27;20036;-27
2024/04/02 11:37:29;;;;;;;3.70;1.13;;;12.30;99.90;;;;;;5109600;28;20031;-28
2024/04/02 11:39:55;;;;;;;2.20;0.85;;;12.30;99.90;;;;;;5120051;27;20023;-28
2024/04/02 11:42:22;;;;;;;4.50;1.13;;;12.30;99.90;;;;;;5114168;27;20629;-28
2024/04/02 11:44:54;;;;;;;2.17;0.90;;;12.30;99.90;;;;;;5100658;28;20432;-29
2024/04/02 11:47:20;;;;;;;1.92;0.90;;;12.20;99.90;;;;;;5116976;28;20781;-29
2024/04/02 11:49:46;;;;;;;3.13;0.98;;;12.10;99.90;;;;;;5120195;27;20731;-29
2024/04/02 11:52:15;;;;;;;3.47;1.60;;;12.20;99.90;;;;;;5107046;28;20050;-30
2024/04/02 11:54:40;;;;;;;1.92;1.23;;;12.20;99.90;;;;;;5120723;28;20126;-30
2024/04/02 12:02:36;;;;;;;1.23;0.90;;;12.20;99.90;;;;;;5108175;28;20046;-29
2024/04/02 12:05:02;;;;;;;2.95;1.40;;;12.10;99.90;;;;;;5121727;27;20127;-29
2024/04/02 12:07:28;;;;;;;2.58;1.20;;;12.10;99.90;;;;;;5119742;27;20027;-29
2024/04/02 12:09:59;;;;;;;1.77;1.20;;;12.10;99.90;;;;;;5103919;28;20558;-28
2024/04/02 12:12:28;;;;;;;2.92;1.38;;;12.10;99.90;;;;;;5115302;27;20375;-29
2024/04/02 12:14:55;;;;;;;2.72;1.15;;;12.20;99.90;;;;;;5105054;27;20034;-29
2024/04/02 12:17:23;;;;;;;2.60;1.20;;;12.40;99.90;;;;;;5112533;27;20030;-29
2024/04/02 12:19:50;;;;;;;2.78;1.02;;;12.60;99.90;;;;;;5106174;27;20057;-28
2024/04/02 12:22:17;;;;;;;2.75;1.00;;;12.70;99.90;;;;;;5111227;27;20376;-28
2024/04/02 12:24:43;;;;;;;1.65;1.02;;;12.70;99.90;;;;;;5108618;27;20135;-28
2024/04/02 12:27:08;;;;;;;3.50;1.25;;;12.70;99.90;;;;;;5107350;27;20015;-28
2024/04/02 12:29:37;;;;;;;2.72;1.23;;;12.80;99.90;;;;;;5111746;27;20101;-28
2024/04/02 12:32:05;;;;;;;3.85;1.48;;;12.90;99.90;;;;;;5105864;27;20111;-28
2024/04/02 12:34:31;;;;;;;2.28;1.40;;;12.90;99.90;;;;;;5114724;27;20027;-28
2024/04/02 12:36:57;;;;;;;2.75;1.40;;;13.00;99.90;;;;;;5107558;27;20023;-28
2024/04/02 12:39:23;;;;;;;2.97;1.67;;;13.10;99.90;;;;;;5111999;27;20031;-29
2024/04/02 12:41:48;;;;;;;3.10;1.80;;;13.10;99.90;;;;;;5104382;27;20652;-28
2024/04/02 12:44:14;;;;;;;3.45;1.60;;;13.00;99.90;;;;;;5115353;27;20891;-29
2024/04/02 12:46:40;;;;;;;3.42;1.35;;;13.00;99.90;;;;;;5103102;28;20034;-28
2024/04/02 12:49:08;;;;;;;2.70;1.42;;;12.90;99.90;;;;;;5116529;27;20027;-28
2024/04/02 12:51:34;;;;;;;4.10;1.70;;;12.90;99.90;;;;;;5103402;28;20039;-28
2024/04/02 12:54:00;;;;;;;2.90;1.50;;;12.80;99.90;;;;;;5114417;27;20050;-28
2024/04/02 12:56:28;;;;;;;3.08;1.27;;;12.80;99.90;;;;;;5102372;28;20108;-28
2024/04/02 12:58:55;;;;;;;1.85;0.85;;;12.80;99.90;;;;;;5113101;27;20083;-28